METAR Data

Data at: 1111 UTC 21 Apr 2021

METAR for:KBML (Berlin Muni, NH, US)
Text:KBML 211052Z AUTO 00000KT 7SM BKN006 OVC037 01/00 A2983 RMK AO2 RAB34E38SNE34 CIG 003V009 SLP110 P0006 T00110000 $
Temperature: 1.1°C ( 34°F)
Dewpoint: 0.0°C ( 32°F) [RH = 92%]
Pressure (altimeter):29.83 inches Hg (1010.2 mb) [Sea level pressure: 1011.0 mb]
Winds:calm
Visibility: 7 sm ( 11 km)
Ceiling:600 feet AGL
Clouds: broken clouds at 600 feet AGL, overcast cloud deck at 3700 feet AGL
QC Flag:automated observation with no human augmentation; SOME DATA ABOVE MAY BE INACCURATE!!!"$" is an indication the sensor requires maintenance.